Search for airport 
image banner adimage banner adimage banner ad
image banner ad

67L - Mesquite

Located in Mesquite, United States

ICAO - 67L, IATA -

Data provided by Airmate  

General information

Coordinates: N36°49'59" W114°3'21"
Elevation is 1978 feet MSL.
Magnetic variation is 11° East
View others Airports in Nevada

Operational data

Special qualification required
Current time UTC:
Current local time:
Weather at : KSGU - St George Rgnl ( 53 km )
METAR: KSGU 092256Z AUTO 26010G20KT 10SM CLR 28/M11 A2980 RMK AO2 SLP062 T02781106
TAF: KSGU 091740Z 0918/1018 VRB05KT P6SM FEW200 FM092000 28010KT P6SM SCT200 FM100300 VRB05KT P6SM SCT200
View NOTAMs / SUP AIP / TFR affecting this airport [VIEW]
Communications frequencies: [VIEW]

Runways:

RWY identifierQFULength (ft)Width (ft)SurfaceLDA (ft)
02512175ASPH
20512175ASPH

Airport contact information

Address: Mesquite United States

Satellite view of 67L